Time;durP1;ratioP1;P1;durP2;ratioP2;P2;SDS_P1;SDS_P2;PMS_P1;PMS_P2;Temp;Humidity;BMP_temperature;BMP_pressure;BME280_temperature;BME280_humidity;BME280_pressure;Samples;Min_cycle;Max_cycle;Signal;HPM_P1;HPM_P2
2023/08/25 00:01:17;;;;;;;9.70;3.65;;;20.60;99.90;;;21.18;74.63;99923.63;5031878;28;20441;-85
2023/08/25 00:03:44;;;;;;;9.68;3.97;;;20.70;99.90;;;21.18;75.02;99927.16;5055497;28;20112;-85
2023/08/25 00:06:11;;;;;;;8.68;3.28;;;20.70;99.90;;;21.19;74.80;99925.25;5055243;28;20183;-85
2023/08/25 00:08:39;;;;;;;8.77;3.28;;;20.70;99.90;;;21.18;74.79;99919.03;5037422;28;20413;-85
2023/08/25 00:11:07;;;;;;;8.15;3.20;;;20.70;99.90;;;21.20;74.55;99916.81;5037645;28;20045;-85
2023/08/25 00:13:35;;;;;;;7.60;3.28;;;20.70;99.90;;;21.19;74.63;99909.00;5051399;28;20124;-85
2023/08/25 00:16:05;;;;;;;7.07;3.50;;;20.70;99.90;;;21.18;74.56;99902.75;5020437;28;20048;-85
2023/08/25 00:18:32;;;;;;;7.25;2.95;;;20.70;99.90;;;21.18;74.61;99907.34;5037021;28;20081;-85
2023/08/25 00:21:00;;;;;;;7.60;3.08;;;20.70;99.90;;;21.18;74.68;99904.63;5036038;28;20033;-85
2023/08/25 00:23:27;;;;;;;7.40;3.40;;;20.70;99.90;;;21.16;74.39;99902.22;5054281;28;20493;-85
2023/08/25 00:25:55;;;;;;;9.60;3.17;;;20.60;99.90;;;21.15;74.46;99897.13;5017206;28;20081;-85
2023/08/25 00:28:24;;;;;;;14.30;3.60;;;20.60;99.90;;;21.09;75.20;99890.97;5050847;28;20150;-85
2023/08/25 00:30:52;;;;;;;9.80;3.03;;;20.60;99.90;;;21.11;74.77;99890.66;5036442;28;20048;-85
2023/08/25 00:33:20;;;;;;;9.27;3.08;;;20.60;99.90;;;21.03;75.05;99884.00;5036981;28;20049;-85
2023/08/25 00:35:47;;;;;;;5.97;2.90;;;20.60;99.90;;;21.06;74.95;99883.41;5036409;28;20577;-85
2023/08/25 00:38:16;;;;;;;8.63;3.15;;;20.60;99.90;;;21.00;75.18;99879.19;5052521;28;20045;-85
2023/08/25 00:40:43;;;;;;;7.55;2.75;;;20.60;99.90;;;21.03;75.27;99878.56;5036308;28;20094;-85
2023/08/25 00:43:10;;;;;;;9.05;3.30;;;20.60;99.90;;;20.95;75.29;99876.56;5036654;28;20573;-85
2023/08/25 00:45:41;;;;;;;7.15;3.30;;;20.60;99.90;;;21.00;74.86;99871.84;5036591;28;20045;-85
2023/08/25 00:48:11;;;;;;;10.20;2.92;;;20.60;99.90;;;20.95;75.07;99882.78;5032418;28;20040;-85
2023/08/25 00:50:39;;;;;;;8.57;2.97;;;20.60;99.90;;;20.97;75.42;99875.13;5036353;28;20068;-86
2023/08/25 00:53:07;;;;;;;7.65;2.70;;;20.60;99.90;;;20.93;75.24;99871.41;5053777;28;20541;-85
2023/08/25 00:55:35;;;;;;;7.45;2.80;;;20.60;99.90;;;20.92;75.61;99877.94;5036334;28;20064;-85
2023/08/25 00:58:05;;;;;;;9.27;2.95;;;20.60;99.90;;;20.86;75.68;99873.69;5032932;28;20601;-85
2023/08/25 01:00:33;;;;;;;8.83;3.40;;;20.60;99.90;;;20.86;75.71;99872.88;5035898;28;20114;-85
2023/08/25 01:03:02;;;;;;;9.63;2.83;;;20.60;99.90;;;20.90;75.64;99874.72;5036276;28;20151;-85
2023/08/25 01:05:30;;;;;;;6.00;2.83;;;20.60;99.90;;;20.90;75.32;99869.28;5035390;28;20553;-85
2023/08/25 01:07:58;;;;;;;8.32;2.78;;;20.60;99.90;;;20.92;75.18;99875.22;5034958;28;20802;-85
2023/08/25 01:10:35;;;;;;;8.10;2.65;;;20.60;99.90;;;20.92;75.16;99877.94;5041281;28;20475;-85
2023/08/25 01:13:11;;;;;;;7.13;2.63;;;20.60;99.90;;;20.98;75.11;99881.38;5050242;28;20041;-85
2023/08/25 01:15:41;;;;;;;6.40;2.35;;;20.60;99.90;;;20.99;74.85;99880.28;5053558;28;20138;-85
2023/08/25 01:18:17;;;;;;;9.57;3.00;;;20.60;99.90;;;21.02;74.63;99880.47;5035522;28;20136;-85
2023/08/25 01:20:48;;;;;;;13.23;2.83;;;20.60;99.90;;;21.06;74.70;99886.94;5034854;28;20037;-85
2023/08/25 01:23:20;;;;;;;6.15;3.08;;;20.60;99.90;;;21.07;74.41;99879.59;5031545;28;20045;-85
2023/08/25 01:25:51;;;;;;;7.05;2.53;;;20.60;99.90;;;21.08;74.73;99881.19;5035711;28;20072;-85
2023/08/25 01:28:21;;;;;;;7.53;3.20;;;20.60;99.90;;;21.07;74.57;99880.41;5035566;28;20132;-85
2023/08/25 01:30:49;;;;;;;9.27;3.03;;;20.60;99.90;;;21.05;74.35;99885.31;5034531;28;21651;-85
2023/08/25 01:33:18;;;;;;;6.05;2.80;;;20.60;99.90;;;21.04;74.41;99880.22;5034774;28;20047;-85
2023/08/25 01:36:03;;;;;;;8.13;2.78;;;20.50;99.90;;;21.01;74.29;99881.59;5035435;28;20049;-85
2023/08/25 01:38:43;;;;;;;9.05;2.47;;;20.50;99.90;;;21.01;73.98;99880.78;5035456;28;20049;-85
2023/08/25 01:41:21;;;;;;;5.65;2.60;;;20.50;99.90;;;20.95;74.38;99877.34;5053263;28;20116;-85
2023/08/25 01:43:54;;;;;;;9.98;2.58;;;20.50;99.90;;;20.95;74.74;99882.78;5019060;28;20073;-85
2023/08/25 01:46:23;;;;;;;5.63;2.53;;;20.50;99.90;;;20.96;74.41;99887.09;5035607;28;20512;-85
2023/08/25 01:48:53;;;;;;;8.02;3.10;;;20.50;99.90;;;20.97;74.62;99891.41;5045591;28;20124;-85
2023/08/25 01:51:21;;;;;;;5.97;2.65;;;20.50;99.90;;;20.97;74.29;99890.59;5035437;28;20102;-85
2023/08/25 01:53:53;;;;;;;8.48;2.70;;;20.50;99.90;;;20.95;74.66;99890.91;5035396;28;20505;-85
2023/08/25 01:56:25;;;;;;;6.80;2.70;;;20.50;99.90;;;20.94;74.66;99892.00;5035166;28;20048;-85
2023/08/25 01:58:52;;;;;;;6.15;2.65;;;20.40;99.90;;;20.95;74.25;99879.25;5035038;28;20585;-85
2023/08/25 02:01:20;;;;;;;11.77;3.15;;;20.40;99.90;;;20.93;74.42;99892.28;5034796;28;20256;-85
2023/08/25 02:03:47;;;;;;;5.93;2.92;;;20.40;99.90;;;20.91;74.42;99884.47;5034630;28;20044;-85
2023/08/25 02:06:15;;;;;;;8.45;3.00;;;20.40;99.90;;;20.90;74.33;99880.13;5035079;28;20044;-85
2023/08/25 02:08:45;;;;;;;9.02;3.03;;;20.40;99.90;;;20.91;74.41;99884.47;5035154;28;20041;-85
2023/08/25 02:11:13;;;;;;;7.68;3.15;;;20.40;99.90;;;20.88;74.32;99879.59;5051140;28;20053;-85
2023/08/25 02:13:41;;;;;;;13.20;3.35;;;20.40;99.90;;;20.87;74.62;99877.19;5034667;28;20262;-85
2023/08/25 02:16:09;;;;;;;7.47;2.97;;;20.40;99.90;;;20.86;74.58;99881.81;5035040;28;20144;-85
2023/08/25 02:18:36;;;;;;;7.50;3.20;;;20.30;99.90;;;20.82;74.60;99867.25;5034496;28;20401;-85
2023/08/25 02:21:03;;;;;;;5.93;2.92;;;20.30;99.90;;;20.79;74.58;99867.84;5026661;28;20520;-85
2023/08/25 02:23:31;;;;;;;8.27;2.88;;;20.30;99.90;;;20.79;74.67;99859.72;5040750;28;20041;-85
2023/08/25 02:26:02;;;;;;;6.95;3.00;;;20.30;99.90;;;20.79;74.85;99865.13;5049182;28;20045;-85
2023/08/25 02:28:29;;;;;;;6.72;2.78;;;20.30;99.90;;;20.79;74.44;99860.53;5052684;28;20041;-85
2023/08/25 02:30:58;;;;;;;8.23;2.78;;;20.30;99.90;;;20.79;74.85;99855.09;5051117;28;20048;-85
2023/08/25 02:33:25;;;;;;;8.38;2.70;;;20.30;99.90;;;20.77;74.72;99848.34;5034977;28;20087;-85
2023/08/25 02:35:53;;;;;;;8.40;2.83;;;20.30;99.90;;;20.79;74.76;99846.97;5049355;28;20091;-85
2023/08/25 02:38:20;;;;;;;9.40;2.97;;;20.30;99.90;;;20.80;74.65;99845.84;5047545;28;20046;-85
2023/08/25 02:40:47;;;;;;;9.32;3.00;;;20.30;99.90;;;20.79;74.45;99835.31;5031017;28;20042;-85
2023/08/25 02:43:14;;;;;;;11.05;2.95;;;20.30;99.90;;;20.71;74.87;99833.25;5031231;28;20195;-85
2023/08/25 02:45:43;;;;;;;9.70;3.05;;;20.20;99.90;;;20.71;74.77;99833.25;5041692;28;20052;-85
2023/08/25 02:48:12;;;;;;;6.45;3.17;;;20.20;99.90;;;20.72;74.78;99829.44;5028715;28;20041;-85
2023/08/25 02:50:39;;;;;;;8.93;3.40;;;20.30;99.90;;;20.69;75.00;99835.44;5034318;28;20060;-85
2023/08/25 02:53:07;;;;;;;7.65;2.97;;;20.20;99.90;;;20.70;74.96;99832.47;5023410;28;20514;-85
2023/08/25 02:55:36;;;;;;;8.65;2.80;;;20.30;99.90;;;20.72;74.73;99830.25;5033566;28;20049;-85
2023/08/25 02:58:03;;;;;;;7.22;2.80;;;20.20;99.90;;;20.74;74.85;99835.38;5034358;28;20873;-85
2023/08/25 03:00:30;;;;;;;7.60;3.00;;;20.30;99.90;;;20.76;74.61;99841.31;5033761;28;20570;-85
2023/08/25 03:02:58;;;;;;;6.15;2.88;;;20.30;99.90;;;20.75;74.55;99845.13;5034133;28;20071;-85
2023/08/25 03:05:27;;;;;;;9.98;3.35;;;20.20;99.90;;;20.71;74.48;99844.09;5034104;28;20401;-85
2023/08/25 03:07:54;;;;;;;8.93;3.03;;;20.20;99.90;;;20.67;74.58;99835.75;5034232;28;20049;-85
2023/08/25 03:10:22;;;;;;;7.82;3.13;;;20.20;99.90;;;20.70;74.40;99837.09;5051541;28;20037;-85
2023/08/25 03:12:50;;;;;;;11.32;3.13;;;20.20;99.90;;;20.74;74.13;99819.09;5044462;28;20047;-85
2023/08/25 03:15:18;;;;;;;9.13;3.30;;;20.30;99.90;;;20.76;74.26;99825.06;5046539;28;20490;-85
2023/08/25 03:17:45;;;;;;;7.60;3.20;;;20.30;99.90;;;20.74;73.89;99822.66;5033964;28;20133;-85
2023/08/25 03:20:12;;;;;;;9.48;3.38;;;20.20;99.90;;;20.73;73.93;99814.78;5050394;28;20494;-85
2023/08/25 03:22:41;;;;;;;7.93;3.08;;;20.20;99.90;;;20.71;74.12;99817.81;5044862;28;20091;-85
2023/08/25 03:25:09;;;;;;;6.80;3.10;;;20.20;99.90;;;20.71;74.22;99827.84;5034257;28;20772;-85
2023/08/25 03:27:39;;;;;;;9.07;3.23;;;20.20;99.90;;;20.68;73.77;99818.38;5032714;28;20033;-85
2023/08/25 03:30:08;;;;;;;6.15;2.70;;;20.10;99.90;;;20.64;73.66;99811.13;5033845;28;20555;-85
2023/08/25 03:32:35;;;;;;;7.00;2.80;;;20.10;99.90;;;20.61;73.78;99809.03;5044823;28;20083;-85
2023/08/25 03:35:03;;;;;;;8.20;2.95;;;20.00;99.90;;;20.60;74.00;99802.81;5046589;28;20037;-85
2023/08/25 03:37:31;;;;;;;7.13;3.13;;;20.00;99.90;;;20.58;73.83;99811.22;5035643;28;20045;-85
2023/08/25 03:40:00;;;;;;;8.20;3.05;;;20.00;99.90;;;20.57;73.86;99812.31;5037282;28;20049;-85
2023/08/25 03:42:27;;;;;;;7.65;3.08;;;20.00;99.90;;;20.56;74.09;99816.13;5048912;28;20128;-85
2023/08/25 03:44:54;;;;;;;8.93;3.45;;;20.00;99.90;;;20.52;73.95;99804.25;5037932;28;20406;-85
2023/08/25 03:47:22;;;;;;;7.43;3.13;;;20.00;99.90;;;20.50;74.01;99801.06;5037642;28;20033;-85
2023/08/25 03:49:51;;;;;;;8.60;2.97;;;20.00;99.90;;;20.49;74.02;99798.63;5037516;28;20045;-85
2023/08/25 03:52:18;;;;;;;7.28;2.90;;;19.90;99.90;;;20.46;73.76;99808.13;5034587;28;20056;-85
2023/08/25 03:54:45;;;;;;;6.68;3.30;;;19.90;99.90;;;20.43;73.77;99803.28;5046567;28;20106;-85
2023/08/25 03:57:14;;;;;;;7.05;3.28;;;19.90;99.90;;;20.43;73.66;99800.56;5037067;28;20049;-85
2023/08/25 03:59:41;;;;;;;9.60;3.30;;;19.80;99.90;;;20.39;74.12;99794.13;5052725;28;20536;-85
2023/08/25 04:02:08;;;;;;;7.60;3.20;;;19.80;99.90;;;20.38;74.22;99797.13;5037392;28;20043;-85
2023/08/25 04:04:36;;;;;;;7.05;3.03;;;19.80;99.90;;;20.36;73.76;99797.44;5037412;28;20487;-86
2023/08/25 04:07:03;;;;;;;6.43;3.10;;;19.70;99.90;;;20.34;73.68;99796.91;5054614;28;20039;-84
2023/08/25 04:09:30;;;;;;;7.07;3.20;;;19.80;99.90;;;20.30;73.71;99795.88;5053530;28;20045;-84
2023/08/25 04:12:00;;;;;;;11.68;3.38;;;19.70;99.90;;;20.26;73.68;99784.84;5037190;28;20099;-84
2023/08/25 04:14:29;;;;;;;11.50;3.83;;;19.70;99.90;;;20.25;73.64;99793.25;5020790;28;20039;-84
2023/08/25 04:16:56;;;;;;;9.02;3.47;;;19.70;99.90;;;20.23;73.71;99792.75;5037497;28;20044;-86
2023/08/25 04:19:23;;;;;;;5.97;2.85;;;19.60;99.90;;;20.23;73.50;99806.28;5037200;28;20065;-83
2023/08/25 04:21:53;;;;;;;7.80;3.00;;;19.60;99.90;;;20.20;73.46;99801.44;5026792;28;20047;-83
2023/08/25 04:24:20;;;;;;;6.00;3.00;;;19.60;99.90;;;20.21;73.58;99803.06;5037654;28;20037;-83
2023/08/25 04:26:48;;;;;;;8.80;3.30;;;19.60;99.90;;;20.21;73.58;99797.66;5021101;28;20044;-84
2023/08/25 04:29:15;;;;;;;7.88;3.38;;;19.60;99.90;;;20.17;73.37;99800.13;5035492;28;20048;-84
2023/08/25 04:31:45;;;;;;;9.35;3.30;;;19.60;99.90;;;20.15;73.53;99794.19;5051298;28;20051;-84
2023/08/25 04:34:18;;;;;;;7.80;3.38;;;19.60;99.90;;;20.17;73.50;99791.22;5036658;28;20040;-84
2023/08/25 04:36:46;;;;;;;6.38;2.83;;;19.60;99.90;;;20.15;73.30;99793.38;5035702;28;20098;-85
2023/08/25 04:39:14;;;;;;;6.43;3.13;;;19.60;99.90;;;20.11;73.22;99803.22;5036245;28;20044;-84
2023/08/25 04:41:42;;;;;;;7.38;2.88;;;19.50;99.90;;;20.09;73.46;99797.25;5020858;28;20443;-84
2023/08/25 04:44:10;;;;;;;5.30;2.83;;;19.50;99.90;;;20.05;73.20;99805.94;5040421;28;20045;-84
2023/08/25 04:46:37;;;;;;;7.97;3.47;;;19.50;99.90;;;20.04;73.70;99807.06;5039584;28;20498;-84
2023/08/25 04:49:06;;;;;;;6.65;3.10;;;19.50;99.90;;;20.04;73.23;99801.63;5039142;28;20044;-84
2023/08/25 04:51:37;;;;;;;6.15;2.97;;;19.50;99.90;;;20.01;73.47;99804.94;5012420;28;20045;-84
2023/08/25 04:54:08;;;;;;;6.07;3.17;;;19.50;99.90;;;19.98;73.36;99805.50;5035821;28;20052;-84
2023/08/25 04:56:36;;;;;;;8.70;3.00;;;19.40;99.90;;;19.96;73.37;99798.75;5036494;28;20075;-84
2023/08/25 04:59:04;;;;;;;12.45;3.53;;;19.40;99.90;;;19.95;73.62;99795.25;5036214;28;20049;-84
2023/08/25 05:01:31;;;;;;;6.15;2.83;;;19.40;99.90;;;19.95;73.58;99797.16;5036298;28;20132;-84
2023/08/25 05:03:59;;;;;;;8.60;2.80;;;19.40;99.90;;;19.96;73.91;99796.88;5035749;28;20714;-84
2023/08/25 05:06:27;;;;;;;8.45;3.33;;;19.40;99.90;;;19.95;73.90;99792.53;5036061;28;20167;-85
2023/08/25 05:08:56;;;;;;;7.35;3.45;;;19.40;99.90;;;19.95;74.08;99792.53;5035155;28;20053;-83
2023/08/25 05:11:24;;;;;;;6.10;3.13;;;19.40;99.90;;;19.96;74.43;99796.88;5023097;28;20079;-83
2023/08/25 05:13:51;;;;;;;7.70;2.95;;;19.50;99.90;;;19.96;74.32;99791.47;5035837;28;20072;-83
2023/08/25 05:16:19;;;;;;;8.20;3.47;;;19.50;99.90;;;19.96;74.67;99785.22;5034746;28;20045;-84
2023/08/25 05:18:51;;;;;;;7.40;3.42;;;19.50;99.90;;;19.96;74.60;99799.59;5035474;28;20063;-84
2023/08/25 05:21:18;;;;;;;7.50;3.08;;;19.50;99.90;;;19.98;74.33;99794.69;5036299;28;20091;-83
2023/08/25 05:23:48;;;;;;;8.80;3.40;;;19.50;99.90;;;20.00;74.82;99800.59;5053291;28;20077;-83
2023/08/25 05:26:17;;;;;;;7.90;3.40;;;19.50;99.90;;;20.04;74.68;99792.72;5034885;28;20131;-84
2023/08/25 05:28:54;;;;;;;7.25;3.40;;;19.60;99.90;;;20.10;75.19;99794.25;5035365;28;20041;-85
2023/08/25 05:31:21;;;;;;;7.13;3.53;;;19.60;99.90;;;20.16;75.31;99803.13;5040797;28;20111;-83
2023/08/25 05:34:28;;;;;;;7.13;3.50;;;19.60;99.90;;;20.16;75.31;99795.00;5005577;28;20053;-83
2023/08/25 05:36:57;;;;;;;6.35;3.53;;;19.70;99.90;;;20.14;75.37;99802.59;5003786;28;20445;-82
2023/08/25 05:39:27;;;;;;;5.40;2.78;;;19.70;99.90;;;20.12;75.35;99799.41;5028961;28;20136;-82
2023/08/25 05:41:54;;;;;;;6.47;3.08;;;19.60;99.90;;;20.12;75.81;99796.69;5046853;28;20554;-82
2023/08/25 05:44:21;;;;;;;6.45;2.97;;;19.60;99.90;;;20.14;75.52;99797.19;5036338;28;20040;-82
2023/08/25 05:46:49;;;;;;;8.25;3.17;;;19.70;99.90;;;20.17;75.67;99780.38;5033165;28;20395;-82
2023/08/25 05:49:16;;;;;;;7.32;3.33;;;19.70;99.90;;;20.23;76.13;99792.75;5028412;28;20046;-82
2023/08/25 05:51:46;;;;;;;9.32;4.20;;;19.80;99.90;;;20.29;76.50;99789.66;5035620;28;20099;-82
2023/08/25 05:54:15;;;;;;;11.57;4.60;;;19.90;99.90;;;20.31;75.99;99792.91;5054300;28;20041;-82
2023/08/25 05:56:43;;;;;;;10.18;4.13;;;19.90;99.90;;;20.36;75.99;99778.47;5035216;28;20086;-82
2023/08/25 05:59:11;;;;;;;9.40;4.60;;;19.90;99.90;;;20.37;76.31;99784.69;5033168;28;20448;-82
2023/08/25 06:01:38;;;;;;;9.48;4.88;;;20.00;99.90;;;20.43;76.45;99783.53;5053683;28;20036;-81
2023/08/25 06:04:05;;;;;;;10.52;4.63;;;20.00;99.90;;;20.48;76.19;99769.94;5062226;28;20806;-81
2023/08/25 06:06:33;;;;;;;10.18;4.65;;;20.10;99.90;;;20.52;76.30;99768.25;5047270;28;20128;-82
2023/08/25 06:09:00;;;;;;;12.52;5.00;;;20.20;99.90;;;20.52;76.54;99771.75;5044118;28;20094;-82
2023/08/25 06:11:29;;;;;;;12.75;4.90;;;20.20;99.90;;;20.59;76.49;99765.97;5044099;28;20045;-82
2023/08/25 06:13:57;;;;;;;9.82;5.25;;;20.30;99.90;;;20.62;76.50;99767.28;5038968;28;20490;-82
2023/08/25 06:16:26;;;;;;;10.27;5.13;;;20.30;99.90;;;20.64;76.31;99762.38;5038216;28;20491;-83
2023/08/25 06:18:53;;;;;;;10.63;5.13;;;20.40;99.90;;;20.69;76.25;99756.84;5027858;28;20051;-83
2023/08/25 06:21:21;;;;;;;14.15;5.93;;;20.40;99.90;;;20.73;76.17;99752.47;5053823;28;20136;-82
2023/08/25 06:23:48;;;;;;;10.98;5.85;;;20.50;99.90;;;20.75;76.22;99747.56;5054381;28;20505;-82
2023/08/25 06:26:15;;;;;;;11.52;5.43;;;20.50;99.90;;;20.75;76.44;99742.16;5021081;28;20661;-82
2023/08/25 06:28:43;;;;;;;11.80;5.20;;;20.50;99.90;;;20.73;76.82;99736.19;5049903;28;20647;-83
2023/08/25 06:31:13;;;;;;;11.82;5.07;;;20.50;99.90;;;20.74;76.82;99741.34;5053063;28;20552;-82
2023/08/25 06:33:40;;;;;;;10.90;5.15;;;20.60;99.90;;;20.81;76.83;99730.13;5037210;28;20106;-82
2023/08/25 06:36:08;;;;;;;12.43;4.25;;;20.60;99.90;;;20.89;76.75;99726.72;5036521;28;20052;-82
2023/08/25 06:38:36;;;;;;;11.43;5.25;;;20.70;99.90;;;20.97;76.77;99734.16;5045403;28;20045;-82
2023/08/25 06:41:04;;;;;;;10.40;4.80;;;20.80;99.90;;;21.03;76.94;99743.84;5035294;28;20076;-82
2023/08/25 06:43:32;;;;;;;9.23;4.82;;;20.90;99.90;;;21.06;75.90;99745.94;5052850;28;20715;-81
2023/08/25 06:45:59;;;;;;;8.85;4.53;;;20.90;99.90;;;20.98;75.44;99743.09;5054101;28;20051;-81
2023/08/25 06:48:28;;;;;;;9.65;5.03;;;20.90;99.90;;;21.04;75.91;99755.47;5052336;28;20067;-82
2023/08/25 06:50:55;;;;;;;12.73;5.15;;;20.90;99.90;;;21.11;75.17;99766.72;5054241;28;20405;-81
2023/08/25 06:53:22;;;;;;;9.77;4.65;;;21.00;99.90;;;21.20;75.87;99780.41;5035092;28;20152;-81
2023/08/25 06:55:50;;;;;;;9.43;4.60;;;21.10;99.90;;;21.34;75.73;99783.97;5037627;28;20041;-82
2023/08/25 06:58:17;;;;;;;8.43;4.88;;;21.30;99.90;;;21.38;75.28;99814.84;5055001;28;20047;-81
2023/08/25 07:00:45;;;;;;;10.77;4.38;;;21.30;99.90;;;21.37;75.86;99810.50;5046096;28;20044;-82
2023/08/25 07:03:12;;;;;;;8.10;4.18;;;21.30;99.90;;;21.33;75.85;99802.16;5051690;28;20135;-82
2023/08/25 07:05:41;;;;;;;7.63;3.80;;;21.30;99.90;;;21.33;76.75;99793.22;5035246;28;20069;-82
2023/08/25 07:08:08;;;;;;;7.63;3.92;;;21.20;99.90;;;21.31;76.43;99800.84;5053005;28;20075;-82
2023/08/25 07:10:36;;;;;;;9.60;3.95;;;21.20;99.90;;;21.27;75.98;99759.09;5053155;28;20041;-82
2023/08/25 07:13:04;;;;;;;9.27;3.75;;;21.20;99.90;;;21.24;76.79;99727.19;5052804;28;20571;-82
2023/08/25 07:15:31;;;;;;;6.55;3.80;;;21.10;99.90;;;21.22;76.09;99713.09;5056743;28;20768;-82
2023/08/25 07:17:59;;;;;;;8.13;3.72;;;21.00;99.90;;;21.21;76.63;99750.28;5047711;28;20517;-82
2023/08/25 07:20:27;;;;;;;8.25;3.67;;;21.10;99.90;;;21.20;76.11;99772.28;5050274;28;20041;-82
2023/08/25 07:22:55;;;;;;;6.68;3.83;;;21.00;99.90;;;21.22;77.52;99707.69;5052199;28;20028;-82
2023/08/25 07:25:22;;;;;;;5.78;3.78;;;21.10;99.90;;;21.20;76.43;99693.63;5052643;28;20072;-81
2023/08/25 07:27:50;;;;;;;10.20;4.35;;;21.00;99.90;;;21.21;76.91;99731.28;5053455;28;20037;-81
2023/08/25 07:30:17;;;;;;;12.13;3.60;;;21.00;99.90;;;21.17;76.71;99751.97;5052443;28;20045;-82
2023/08/25 07:32:45;;;;;;;6.35;3.85;;;21.00;99.90;;;21.17;77.19;99759.31;5049512;28;20432;-82
2023/08/25 07:35:14;;;;;;;8.30;3.92;;;20.90;99.90;;;21.16;77.81;99796.47;5052930;28;20037;-81
2023/08/25 07:37:41;;;;;;;7.00;3.83;;;20.90;99.90;;;21.10;78.47;99811.22;5051592;28;20041;-81
2023/08/25 07:40:12;;;;;;;6.55;3.88;;;20.90;99.90;;;21.09;79.16;99855.72;5033496;28;20053;-82
2023/08/25 07:42:39;;;;;;;8.85;4.47;;;20.80;99.90;;;20.98;79.87;99876.75;5051634;28;20057;-82
2023/08/25 07:45:08;;;;;;;8.55;4.32;;;20.70;99.90;;;20.95;80.23;99869.22;5029317;28;20037;-82
2023/08/25 07:47:36;;;;;;;9.85;4.70;;;20.70;99.90;;;20.90;80.55;99885.56;5039978;28;20055;-82
2023/08/25 07:50:04;;;;;;;9.77;5.07;;;20.70;99.90;;;20.87;80.40;99864.44;5034801;28;20044;-82
2023/08/25 07:52:31;;;;;;;9.73;5.47;;;20.60;99.90;;;20.83;81.61;99841.75;5033577;28;20037;-82
2023/08/25 07:54:58;;;;;;;12.68;5.53;;;20.60;99.90;;;20.82;81.00;99829.28;5045758;28;20504;-82
2023/08/25 07:57:28;;;;;;;15.50;6.10;;;20.60;99.90;;;20.83;81.50;99820.06;5051373;28;20494;-82
2023/08/25 07:59:55;;;;;;;11.05;5.95;;;20.50;99.90;;;20.85;81.75;99852.31;5033526;28;20064;-81
2023/08/25 08:02:22;;;;;;;12.32;5.82;;;20.50;99.90;;;20.84;81.43;99865.06;5053556;28;20053;-82
2023/08/25 08:04:51;;;;;;;9.75;5.80;;;20.50;99.90;;;20.76;82.25;99858.38;5030754;28;20037;-81
2023/08/25 08:07:18;;;;;;;11.45;6.32;;;20.50;99.90;;;20.71;82.24;99844.09;5051097;28;20037;-82
2023/08/25 08:09:45;;;;;;;13.60;6.78;;;20.30;99.90;;;20.71;82.72;99852.25;5050552;28;20413;-81
2023/08/25 08:12:12;;;;;;;12.73;6.65;;;20.40;99.90;;;20.70;83.16;99861.47;5050219;28;20059;-82
2023/08/25 08:14:41;;;;;;;14.82;7.60;;;20.40;99.90;;;20.70;83.06;99850.63;5051682;28;20033;-82
2023/08/25 08:17:08;;;;;;;12.60;7.50;;;20.30;99.90;;;20.69;83.21;99821.91;5042540;28;20063;-81
2023/08/25 08:19:36;;;;;;;15.18;6.72;;;20.40;99.90;;;20.66;83.68;99800.81;5049354;28;20565;-81
2023/08/25 08:22:03;;;;;;;13.90;7.35;;;20.40;99.90;;;20.64;83.86;99792.16;5052086;28;20512;-81
2023/08/25 08:24:30;;;;;;;12.40;7.55;;;20.30;99.90;;;20.61;83.79;99790.88;5055908;28;20051;-81
2023/08/25 08:26:58;;;;;;;12.25;7.15;;;20.30;99.90;;;20.52;83.62;99760.91;5055697;28;20123;-81
2023/08/25 08:29:27;;;;;;;15.00;6.90;;;20.30;99.90;;;20.52;83.98;99735.72;5036439;28;20501;-81
2023/08/25 08:31:56;;;;;;;15.35;7.22;;;20.30;99.90;;;20.54;83.94;99737.03;5048285;28;20108;-82
2023/08/25 08:34:23;;;;;;;13.95;6.95;;;20.20;99.90;;;20.57;83.76;99787.94;5037992;28;20267;-82
2023/08/25 08:36:50;;;;;;;12.45;6.53;;;20.30;99.90;;;20.59;83.89;99836.41;5037448;28;20120;-81
2023/08/25 08:39:18;;;;;;;8.88;6.00;;;20.30;99.90;;;20.56;83.90;99858.69;5053451;28;20037;-83
2023/08/25 08:41:48;;;;;;;9.48;5.82;;;20.30;99.90;;;20.54;84.60;99822.94;5054524;28;20574;-83
2023/08/25 08:44:19;;;;;;;9.82;6.10;;;20.20;99.90;;;20.53;84.42;99816.72;5056704;28;20045;-83
2023/08/25 08:46:46;;;;;;;;;;;20.20;99.90;;;20.55;84.84;99830.78;5053713;28;20099;-82
2023/08/25 08:49:15;;;;;;;10.38;5.22;;;20.20;99.90;;;20.51;84.93;99837.88;5035069;28;19920;-83
2023/08/25 08:51:45;;;;;;;8.35;4.13;;;20.20;99.90;;;20.50;84.86;99836.28;5055183;28;20481;-83
2023/08/25 08:54:13;;;;;;;10.85;4.38;;;20.20;99.90;;;20.52;85.19;99809.69;5037046;28;20633;-84
2023/08/25 08:56:40;;;;;;;9.32;4.50;;;20.20;99.90;;;20.51;85.52;99799.94;5037666;28;20041;-83
2023/08/25 08:59:07;;;;;;;10.77;4.47;;;20.20;99.90;;;20.55;85.14;99805.59;5054817;28;20044;-83
2023/08/25 09:01:35;;;;;;;10.43;4.32;;;20.20;99.90;;;20.56;85.64;99771.97;5034592;28;20048;-84
2023/08/25 09:04:06;;;;;;;7.78;4.40;;;20.20;99.90;;;20.54;85.17;99774.97;5037709;28;20131;-83
2023/08/25 09:06:37;;;;;;;7.53;4.22;;;20.20;99.90;;;20.57;85.22;99798.78;5061613;28;20040;-83
2023/08/25 09:09:08;;;;;;;8.45;4.32;;;20.20;99.90;;;20.60;85.51;99829.09;5057100;28;20055;-82
2023/08/25 09:11:37;;;;;;;6.90;4.40;;;20.30;99.90;;;20.54;86.67;99802.06;5061962;28;20109;-82
2023/08/25 09:14:05;;;;;;;12.00;5.93;;;20.20;99.90;;;20.57;86.49;99782.50;5050959;28;20120;-83
2023/08/25 09:16:36;;;;;;;9.38;5.00;;;20.30;99.90;;;20.62;86.42;99789.75;5037463;28;20109;-84
2023/08/25 09:19:05;;;;;;;9.05;4.75;;;20.30;99.90;;;20.66;87.74;99823.31;5038141;28;20040;-84
2023/08/25 09:21:34;;;;;;;14.45;4.75;;;20.40;99.90;;;20.65;88.51;99842.56;5037948;28;20053;-84
2023/08/25 09:24:04;;;;;;;10.27;4.72;;;20.30;99.90;;;20.61;89.01;99850.47;5038340;28;20048;-83
2023/08/25 09:26:37;;;;;;;10.95;5.13;;;20.40;99.90;;;20.58;89.36;99859.97;5062739;28;20056;-83
2023/08/25 09:29:05;;;;;;;8.07;4.38;;;20.40;99.90;;;20.65;88.56;99875.09;5053526;28;20036;-84
2023/08/25 09:31:33;;;;;;;7.70;4.50;;;20.40;99.90;;;20.66;89.17;99899.19;5061892;28;20032;-83
2023/08/25 09:34:02;;;;;;;9.40;4.72;;;20.40;99.90;;;20.65;89.31;99897.56;5036051;28;20041;-84
2023/08/25 09:36:30;;;;;;;15.55;6.13;;;20.40;99.90;;;20.67;88.86;99864.75;5054291;28;20506;-84
2023/08/25 09:39:00;;;;;;;10.48;5.10;;;20.40;99.90;;;20.70;88.67;99888.56;5042277;28;20136;-83
2023/08/25 09:41:29;;;;;;;9.95;5.18;;;20.40;99.90;;;20.71;87.96;99854.94;5030537;28;20135;-83
2023/08/25 09:44:00;;;;;;;13.63;5.60;;;20.40;99.90;;;20.72;87.67;99867.41;5052252;28;20116;-83
2023/08/25 09:46:29;;;;;;;15.50;5.88;;;20.40;99.90;;;20.71;87.52;99792.63;5051863;28;20127;-83
2023/08/25 09:49:02;;;;;;;9.80;5.20;;;20.40;99.90;;;20.69;88.06;99789.38;5035794;28;20044;-83
2023/08/25 09:51:39;;;;;;;11.10;5.28;;;20.40;99.90;;;20.68;87.71;99837.34;5054130;28;20037;-83
2023/08/25 09:54:12;;;;;;;9.52;5.55;;;20.40;99.90;;;20.70;87.16;99809.97;5030338;28;20049;-83
2023/08/25 09:56:41;;;;;;;14.57;6.00;;;20.40;99.90;;;20.72;87.37;99780.66;5050992;28;20557;-83
2023/08/25 09:59:10;;;;;;;9.50;6.13;;;20.40;99.90;;;20.74;87.11;99832.66;5035701;28;20469;-84
2023/08/25 10:01:40;;;;;;;12.32;5.80;;;20.50;99.90;;;20.73;86.73;99853.53;5049484;28;20055;-83
2023/08/25 10:04:07;;;;;;;11.95;6.15;;;20.40;99.90;;;20.72;86.61;99859.25;5048603;28;20509;-81
2023/08/25 10:06:37;;;;;;;15.25;6.07;;;20.40;99.90;;;20.74;87.10;99884.16;5047386;28;20171;-80
2023/08/25 10:09:05;;;;;;;11.52;6.25;;;20.40;99.90;;;20.73;87.34;99907.75;5035319;28;20049;-79
2023/08/25 10:11:39;;;;;;;19.23;6.70;;;20.40;99.90;;;20.71;87.69;99901.03;5035427;28;20037;-81
2023/08/25 10:14:10;;;;;;;16.10;7.07;;;20.40;99.90;;;20.70;87.73;99894.78;5035832;28;20062;-84
2023/08/25 10:16:42;;;;;;;18.15;7.05;;;20.40;99.90;;;20.70;87.10;99943.56;5043532;28;20049;-82
2023/08/25 10:19:15;;;;;;;11.73;6.72;;;20.40;99.90;;;20.65;87.03;99964.53;5057992;28;20693;-83
2023/08/25 10:21:45;;;;;;;15.98;7.13;;;20.30;99.90;;;20.55;87.75;99955.41;5044292;28;20047;-90
2023/08/25 10:24:14;;;;;;;12.25;7.00;;;20.30;99.90;;;20.53;88.02;99908.81;5052585;28;20037;-82